Terminal Aerodrome Forecast
Issued by NWS

Home | Current Version | Previous Version | Text Only | Print | Product List | Glossary On
Versions: 1 2 3 4 5 6 7 8 9 10 11 12 13
000
FTUS45 KREV 252320
TAFMMH
TAF
KMMH 252320Z 2600/2624 26012G18KT P6SM VCSH BKN060 BKN120
     FM260200 29008G14KT P6SM SCT060 BKN120 BKN180
     FM260500 VRB04KT P6SM SCT120 SCT180
     FM261500 13006KT P6SM SCT100 SCT150
     FM262000 26010G16KT P6SM VCSH BKN080 BKN120=

USA.gov is the U.S. government's official web portal to all federal, state and local government web resources and services.